Time;durP1;ratioP1;P1;durP2;ratioP2;P2;SDS_P1;SDS_P2;PMS_P1;PMS_P2;Temp;Humidity;BMP_temperature;BMP_pressure;BME280_temperature;BME280_humidity;BME280_pressure;Samples;Min_cycle;Max_cycle;Signal;HPM_P1;HPM_P2
2024/01/24 14:54:09;;;;;;;31.20;7.43;;;8.30;99.90;;;;;;5066353;28;20218;-85
2024/01/24 14:56:37;;;;;;;40.10;8.17;;;8.30;99.90;;;;;;5072198;28;20265;-84
2024/01/24 14:59:04;;;;;;;32.87;9.07;;;8.40;99.90;;;;;;5066457;28;20252;-85
2024/01/24 15:01:31;;;;;;;33.40;8.70;;;8.40;99.90;;;;;;5061157;28;20718;-85
2024/01/24 15:03:57;;;;;;;35.67;7.90;;;8.30;99.90;;;;;;5074545;28;20245;-84
2024/01/24 15:06:24;;;;;;;31.20;7.93;;;8.40;99.90;;;;;;5070841;28;20254;-84
2024/01/24 15:08:51;;;;;;;32.57;8.80;;;8.40;99.90;;;;;;5060453;28;20223;-85
2024/01/24 15:11:19;;;;;;;27.93;8.20;;;8.30;99.90;;;;;;5065553;28;20242;-85
2024/01/24 15:13:46;;;;;;;35.77;9.07;;;8.30;99.90;;;;;;5067030;28;20287;-86
2024/01/24 15:16:13;;;;;;;33.77;8.80;;;8.40;99.90;;;;;;5067668;28;20579;-85
2024/01/24 15:18:41;;;;;;;40.00;8.67;;;8.30;99.90;;;;;;5060381;28;20236;-85
2024/01/24 15:21:09;;;;;;;30.87;7.90;;;8.40;99.90;;;;;;5070565;28;20229;-85
2024/01/24 15:23:36;;;;;;;37.40;8.40;;;8.30;99.90;;;;;;5092763;28;20231;-84
2024/01/24 15:26:03;;;;;;;33.60;8.27;;;8.40;99.90;;;;;;5070288;28;20230;-85
2024/01/24 15:28:31;;;;;;;35.13;8.37;;;8.30;99.90;;;;;;5085727;28;20246;-85
2024/01/24 15:30:59;;;;;;;33.07;8.17;;;8.30;99.90;;;;;;5067019;28;20339;-87
2024/01/24 15:33:26;;;;;;;31.00;7.63;;;8.40;99.90;;;;;;5058227;28;20223;-85
2024/01/24 15:35:53;;;;;;;38.20;9.67;;;8.30;99.90;;;;;;5079924;28;20317;-85
2024/01/24 15:38:20;;;;;;;43.43;8.50;;;8.30;99.90;;;;;;5081033;28;20250;-86
2024/01/24 15:40:46;;;;;;;35.87;9.10;;;8.30;99.90;;;;;;5074605;28;20669;-85
2024/01/24 15:43:13;;;;;;;40.57;9.93;;;8.30;99.90;;;;;;5088289;28;20283;-85
2024/01/24 15:45:42;;;;;;;33.23;8.23;;;8.30;99.90;;;;;;5063536;28;20296;-85
2024/01/24 15:48:08;;;;;;;42.00;10.30;;;8.30;99.90;;;;;;5056409;28;20277;-85
2024/01/24 15:50:36;;;;;;;30.63;8.53;;;8.20;99.90;;;;;;5078293;28;20277;-84
2024/01/24 15:53:03;;;;;;;35.13;9.03;;;8.20;99.90;;;;;;5082314;28;20233;-84
2024/01/24 15:55:33;;;;;;;31.67;8.20;;;8.20;99.90;;;;;;5074859;28;20257;-83
2024/01/24 15:57:59;;;;;;;42.90;9.17;;;8.20;99.90;;;;;;5065364;28;20222;-84
2024/01/24 16:00:27;;;;;;;33.97;8.67;;;8.10;99.90;;;;;;5064159;28;20317;-85
2024/01/24 16:02:57;;;;;;;36.07;8.93;;;8.10;99.90;;;;;;5067207;28;20226;-85
2024/01/24 16:05:33;;;;;;;37.63;9.50;;;8.00;99.90;;;;;;5073634;28;20235;-88
2024/01/24 16:08:01;;;;;;;43.57;8.77;;;8.00;99.90;;;;;;5042234;28;20224;-85
2024/01/24 16:10:28;;;;;;;33.20;8.47;;;7.90;99.90;;;;;;5035928;28;20223;-88
2024/01/24 16:12:55;;;;;;;41.27;9.40;;;7.90;99.90;;;;;;5045697;28;20305;-84
2024/01/24 16:15:21;;;;;;;35.47;8.77;;;7.90;99.90;;;;;;5047379;28;20261;-85
2024/01/24 16:17:48;;;;;;;37.30;8.63;;;7.80;99.90;;;;;;5068346;28;20237;-85
2024/01/24 16:20:17;;;;;;;37.33;9.40;;;7.80;99.90;;;;;;5062881;28;20323;-87
2024/01/24 16:22:44;;;;;;;36.13;9.57;;;7.80;99.90;;;;;;5080700;28;20299;-84
2024/01/24 16:25:11;;;;;;;41.90;8.90;;;7.80;99.90;;;;;;5078054;28;20312;-86
2024/01/24 16:27:39;;;;;;;37.17;8.83;;;7.80;99.90;;;;;;5059535;28;20394;-86
2024/01/24 16:30:08;;;;;;;40.27;9.17;;;7.80;99.90;;;;;;5079789;28;20238;-85
2024/01/24 16:32:35;;;;;;;33.83;8.27;;;7.80;99.90;;;;;;5080475;28;20251;-86
2024/01/24 16:35:04;;;;;;;35.97;8.30;;;7.80;99.90;;;;;;5064273;28;20237;-87
2024/01/24 16:37:32;;;;;;;31.30;8.37;;;7.80;99.90;;;;;;5064608;28;20231;-85
2024/01/24 16:39:59;;;;;;;32.63;8.03;;;7.80;99.90;;;;;;5064964;28;20307;-85
2024/01/24 16:42:26;;;;;;;36.97;8.37;;;7.80;99.90;;;;;;5062983;28;20241;-85
2024/01/24 16:44:53;;;;;;;29.93;8.33;;;7.80;99.90;;;;;;5058549;28;20224;-88
2024/01/24 16:47:19;;;;;;;36.23;8.73;;;7.80;99.90;;;;;;5050682;28;20305;-85
2024/01/24 16:49:46;;;;;;;29.63;7.80;;;7.80;99.90;;;;;;5083728;28;20717;-86
2024/01/24 16:52:13;;;;;;;28.53;7.40;;;7.80;99.90;;;;;;5062854;28;20732;-85
2024/01/24 16:54:41;;;;;;;38.83;8.20;;;7.80;99.90;;;;;;5049883;28;20219;-85
2024/01/24 16:57:08;;;;;;;28.40;8.33;;;7.90;99.90;;;;;;5059313;28;20226;-85
2024/01/24 16:59:35;;;;;;;37.73;7.90;;;7.90;99.90;;;;;;5084807;28;20242;-86
2024/01/24 17:02:02;;;;;;;36.47;8.37;;;7.90;99.90;;;;;;5060558;28;20687;-86
2024/01/24 17:04:29;;;;;;;36.93;7.87;;;8.00;99.90;;;;;;5063516;28;20219;-86
2024/01/24 17:06:55;;;;;;;29.70;8.53;;;7.90;99.90;;;;;;5067011;28;20241;-85
2024/01/24 17:09:22;;;;;;;35.30;8.93;;;7.90;99.90;;;;;;5028115;28;20228;-85
2024/01/24 17:11:50;;;;;;;30.00;8.03;;;7.90;99.90;;;;;;5073311;28;20218;-84
2024/01/24 17:14:17;;;;;;;33.43;7.90;;;8.00;99.90;;;;;;5065999;28;20685;-85
2024/01/24 17:16:44;;;;;;;36.17;8.13;;;8.00;99.90;;;;;;5060847;28;20259;-85
2024/01/24 17:19:11;;;;;;;35.33;8.00;;;8.00;99.90;;;;;;5063702;28;20274;-83
2024/01/24 17:21:37;;;;;;;35.90;8.70;;;8.00;99.90;;;;;;5087205;28;20801;-84
2024/01/24 17:24:04;;;;;;;35.17;8.20;;;8.00;99.90;;;;;;5065944;28;20230;-82
2024/01/24 17:26:31;;;;;;;30.63;8.03;;;8.00;99.90;;;;;;5058220;28;20243;-85
2024/01/24 17:28:59;;;;;;;29.07;7.33;;;8.00;99.90;;;;;;5069119;28;20313;-86
2024/01/24 17:31:26;;;;;;;25.70;7.53;;;7.90;99.90;;;;;;5065080;28;20709;-86
2024/01/24 17:33:53;;;;;;;38.70;8.13;;;8.00;99.90;;;;;;5068128;28;20221;-86
2024/01/24 17:36:19;;;;;;;34.07;8.07;;;8.00;99.90;;;;;;5068283;28;20284;-86
2024/01/24 17:38:46;;;;;;;36.27;8.63;;;7.90;99.90;;;;;;5090002;28;20218;-84
2024/01/24 17:41:14;;;;;;;34.60;8.20;;;7.90;99.90;;;;;;5088447;28;20822;-88
2024/01/24 17:43:41;;;;;;;34.50;7.63;;;8.00;99.90;;;;;;5086718;28;20248;-87
2024/01/24 17:46:09;;;;;;;34.40;8.60;;;7.90;99.90;;;;;;5065677;28;20308;-85
2024/01/24 17:48:36;;;;;;;38.73;8.50;;;7.90;99.90;;;;;;5070196;28;20261;-85
2024/01/24 17:51:05;;;;;;;35.13;8.40;;;7.90;99.90;;;;;;5066783;28;20227;-85
2024/01/24 17:53:31;;;;;;;38.50;8.77;;;7.90;99.90;;;;;;5070416;28;20633;-87
2024/01/24 17:55:58;;;;;;;33.57;7.90;;;7.90;99.90;;;;;;5071698;28;20268;-86
2024/01/24 17:58:25;;;;;;;36.07;7.93;;;7.90;99.90;;;;;;5072016;28;20822;-85
2024/01/24 18:00:52;;;;;;;30.53;7.83;;;7.90;99.90;;;;;;5064537;28;20226;-83
2024/01/24 18:03:20;;;;;;;35.13;7.73;;;7.90;99.90;;;;;;5053877;28;20223;-84
2024/01/24 18:05:47;;;;;;;30.23;8.17;;;7.90;99.90;;;;;;5052529;28;20710;-82
2024/01/24 18:08:14;;;;;;;34.33;8.37;;;7.90;99.90;;;;;;5061449;28;20243;-84
2024/01/24 18:10:40;;;;;;;34.93;7.77;;;7.90;99.90;;;;;;5068820;28;20232;-83
2024/01/24 18:13:07;;;;;;;33.33;8.03;;;7.90;99.90;;;;;;5075116;28;20237;-84
2024/01/24 18:15:34;;;;;;;29.90;7.43;;;7.90;99.90;;;;;;5087715;28;20223;-85
2024/01/24 18:18:01;;;;;;;34.33;7.93;;;7.90;99.90;;;;;;5084280;28;20311;-86
2024/01/24 18:20:31;;;;;;;35.87;8.27;;;7.90;99.90;;;;;;5059875;28;20344;-87
2024/01/24 18:22:58;;;;;;;32.50;7.33;;;7.90;99.90;;;;;;5079685;28;20208;-86
2024/01/24 18:25:25;;;;;;;35.00;7.90;;;7.90;99.90;;;;;;5060824;28;20237;-85
2024/01/24 18:27:52;;;;;;;37.00;8.10;;;7.90;99.90;;;;;;5063389;28;20307;-86
2024/01/24 18:30:21;;;;;;;32.13;7.73;;;7.90;99.90;;;;;;5061934;28;20285;-87
2024/01/24 18:32:48;;;;;;;36.40;8.83;;;7.80;99.90;;;;;;5061808;28;20215;-88
2024/01/24 18:35:15;;;;;;;34.73;8.03;;;7.80;99.90;;;;;;5057241;28;20230;-87
2024/01/24 18:37:43;;;;;;;32.50;8.03;;;7.80;99.90;;;;;;5059398;28;20226;-84
2024/01/24 18:40:11;;;;;;;29.93;7.73;;;7.80;99.90;;;;;;5065251;28;20551;-85
2024/01/24 18:42:39;;;;;;;32.90;8.40;;;7.80;99.90;;;;;;5089849;28;20237;-84
2024/01/24 18:45:07;;;;;;;31.07;7.60;;;7.80;99.90;;;;;;5082383;28;20222;-84
2024/01/24 18:47:34;;;;;;;31.23;7.00;;;7.80;99.90;;;;;;5053841;28;20223;-84
2024/01/24 18:50:01;;;;;;;34.83;7.93;;;7.80;99.90;;;;;;5069892;28;20325;-83
2024/01/24 18:52:28;;;;;;;34.53;8.80;;;7.80;99.90;;;;;;5053120;28;20283;-86
2024/01/24 18:54:56;;;;;;;31.93;7.43;;;7.80;99.90;;;;;;5062132;28;20238;-86
2024/01/24 18:57:24;;;;;;;35.27;8.50;;;7.80;99.90;;;;;;5076897;28;20210;-85
2024/01/24 18:59:51;;;;;;;28.77;7.40;;;7.80;99.90;;;;;;5090627;28;20280;-85
2024/01/24 19:02:18;;;;;;;34.83;7.70;;;7.80;99.90;;;;;;5083791;28;20641;-85
2024/01/24 19:04:45;;;;;;;30.80;7.63;;;7.80;99.90;;;;;;5080697;28;20246;-83
2024/01/24 19:07:12;;;;;;;29.53;7.27;;;7.80;99.90;;;;;;5052213;28;20684;-84
2024/01/24 19:09:39;;;;;;;29.93;7.77;;;7.80;99.90;;;;;;5068097;28;20314;-84
2024/01/24 19:12:09;;;;;;;34.37;8.37;;;7.70;99.90;;;;;;5060664;28;20317;-84
2024/01/24 19:14:36;;;;;;;33.60;7.97;;;7.70;99.90;;;;;;5064904;28;20289;-85
2024/01/24 19:17:03;;;;;;;30.43;7.17;;;7.70;99.90;;;;;;5082561;28;20229;-84
2024/01/24 19:19:30;;;;;;;41.93;8.17;;;7.70;99.90;;;;;;5072493;28;21845;-85
2024/01/24 19:21:57;;;;;;;27.70;7.17;;;7.70;99.90;;;;;;5069859;28;20279;-85
2024/01/24 19:24:23;;;;;;;36.30;7.67;;;7.70;99.90;;;;;;5066252;28;20238;-84
2024/01/24 19:26:50;;;;;;;29.57;7.90;;;7.70;99.90;;;;;;5056784;28;20234;-85
2024/01/24 19:29:19;;;;;;;29.40;7.57;;;7.70;99.90;;;;;;5067313;28;20226;-83
2024/01/24 19:31:46;;;;;;;36.93;7.73;;;7.70;99.90;;;;;;5064936;28;20234;-84
2024/01/24 19:34:13;;;;;;;26.63;7.10;;;7.60;99.90;;;;;;5065918;28;20304;-83
2024/01/24 19:36:41;;;;;;;30.00;7.27;;;7.70;99.90;;;;;;5048508;28;20225;-85
2024/01/24 19:39:08;;;;;;;29.60;7.00;;;7.60;99.90;;;;;;5068798;28;20984;-85
2024/01/24 19:41:35;;;;;;;25.80;6.73;;;7.60;99.90;;;;;;5062696;28;20224;-86
2024/01/24 19:44:02;;;;;;;32.33;8.10;;;7.60;99.90;;;;;;5081806;28;20927;-85
2024/01/24 19:46:30;;;;;;;34.50;8.47;;;7.60;99.90;;;;;;5066296;28;20306;-84
2024/01/24 19:48:57;;;;;;;34.57;8.63;;;7.60;99.90;;;;;;5069274;28;20222;-84
2024/01/24 19:51:23;;;;;;;29.67;7.47;;;7.60;99.90;;;;;;5081966;28;20226;-83
2024/01/24 19:53:53;;;;;;;27.73;6.93;;;7.60;99.90;;;;;;5062417;28;20810;-82
2024/01/24 19:56:20;;;;;;;28.53;7.67;;;7.60;99.90;;;;;;5073600;28;20224;-82
2024/01/24 19:58:48;;;;;;;33.03;7.87;;;7.60;99.90;;;;;;5066261;28;20232;-85
2024/01/24 20:01:15;;;;;;;33.20;7.93;;;7.60;99.90;;;;;;5058492;28;20225;-85
2024/01/24 20:03:43;;;;;;;31.17;7.73;;;7.60;99.90;;;;;;5056457;28;20226;-85
2024/01/24 20:06:10;;;;;;;35.63;8.27;;;7.60;99.90;;;;;;5066715;28;20581;-81
2024/01/24 20:08:37;;;;;;;26.43;7.10;;;7.60;99.90;;;;;;5064262;28;20295;-82
2024/01/24 20:11:04;;;;;;;33.07;7.43;;;7.60;99.90;;;;;;5070611;28;20257;-81
2024/01/24 20:13:34;;;;;;;30.17;7.13;;;7.60;99.90;;;;;;5076905;28;20233;-81
2024/01/24 20:16:02;;;;;;;36.13;8.20;;;7.60;99.90;;;;;;5053738;28;20235;-82
2024/01/24 20:18:29;;;;;;;31.63;7.70;;;7.60;99.90;;;;;;5085311;28;20230;-81
2024/01/24 20:20:59;;;;;;;33.30;8.50;;;7.50;99.90;;;;;;5086788;28;20225;-82
2024/01/24 20:23:26;;;;;;;33.10;7.93;;;7.50;99.90;;;;;;5067382;28;20695;-83
2024/01/24 20:25:55;;;;;;;29.80;7.13;;;7.50;99.90;;;;;;5073567;28;20314;-84
2024/01/24 20:28:24;;;;;;;36.77;7.97;;;7.50;99.90;;;;;;5037542;28;20297;-84
2024/01/24 20:30:51;;;;;;;32.27;7.13;;;7.60;99.90;;;;;;5080037;28;20781;-84
2024/01/24 20:33:18;;;;;;;27.67;7.10;;;7.60;99.90;;;;;;5072742;28;20929;-83
2024/01/24 20:35:45;;;;;;;34.77;7.63;;;7.60;99.90;;;;;;5055698;28;20225;-80
2024/01/24 20:38:14;;;;;;;34.77;7.50;;;7.60;99.90;;;;;;5068421;28;20232;-83
2024/01/24 20:40:41;;;;;;;37.77;7.70;;;7.60;99.90;;;;;;5079503;28;20215;-84
2024/01/24 20:43:08;;;;;;;34.57;7.40;;;7.60;99.90;;;;;;5067821;28;20600;-83
2024/01/24 20:45:35;;;;;;;33.03;7.40;;;7.50;99.90;;;;;;5045320;28;20287;-83
2024/01/24 20:48:02;;;;;;;32.97;8.27;;;7.50;99.90;;;;;;5067788;28;20229;-83
2024/01/24 20:50:29;;;;;;;35.20;8.87;;;7.60;99.90;;;;;;5065079;28;20320;-82
2024/01/24 20:52:55;;;;;;;32.73;7.50;;;7.50;99.90;;;;;;5066429;28;20583;-83
2024/01/24 20:55:24;;;;;;;31.67;7.20;;;7.50;99.90;;;;;;5066575;28;20220;-81
2024/01/24 20:57:51;;;;;;;27.20;7.30;;;7.60;99.90;;;;;;5068924;28;20223;-81
2024/01/24 21:00:19;;;;;;;31.17;8.03;;;7.60;99.90;;;;;;5065523;28;20284;-81
2024/01/24 21:02:45;;;;;;;31.43;7.63;;;7.60;99.90;;;;;;5079710;28;20702;-81
2024/01/24 21:05:14;;;;;;;38.83;8.67;;;7.60;99.90;;;;;;5060440;28;20233;-80
2024/01/24 21:07:41;;;;;;;27.13;7.53;;;7.50;99.90;;;;;;5065808;28;20215;-80
2024/01/24 21:10:09;;;;;;;32.83;7.87;;;7.60;99.90;;;;;;5060469;28;20239;-81
2024/01/24 21:12:38;;;;;;;32.77;7.57;;;7.60;99.90;;;;;;5048374;28;20236;-80
2024/01/24 21:15:05;;;;;;;34.80;7.30;;;7.50;99.90;;;;;;5081989;28;20305;-80
2024/01/24 21:17:33;;;;;;;33.53;7.70;;;7.50;99.90;;;;;;5064082;28;20288;-80
2024/01/24 21:20:00;;;;;;;33.73;6.83;;;7.50;99.90;;;;;;5079044;28;20229;-80
2024/01/24 21:22:27;;;;;;;27.93;6.67;;;7.50;99.90;;;;;;5081714;28;20314;-81
2024/01/24 21:24:54;;;;;;;36.47;7.93;;;7.50;99.90;;;;;;5070124;28;20248;-80
2024/01/24 21:27:21;;;;;;;28.40;7.10;;;7.50;99.90;;;;;;5057709;28;20243;-80
2024/01/24 21:29:49;;;;;;;34.50;8.10;;;7.50;99.90;;;;;;5066725;28;21007;-80
2024/01/24 21:32:16;;;;;;;28.83;7.27;;;7.50;99.90;;;;;;5088079;28;20219;-80
2024/01/24 21:34:43;;;;;;;30.60;8.30;;;7.50;99.90;;;;;;5096645;28;20240;-81
2024/01/24 21:37:10;;;;;;;29.77;7.80;;;7.50;99.90;;;;;;5075305;28;20704;-82
2024/01/24 21:39:37;;;;;;;30.30;7.30;;;7.50;99.90;;;;;;5097345;28;20240;-81
2024/01/24 21:42:04;;;;;;;24.73;6.90;;;7.50;99.90;;;;;;5082412;28;20727;-81
2024/01/24 21:44:31;;;;;;;27.50;6.80;;;7.40;99.90;;;;;;5091947;28;20225;-80
2024/01/24 21:47:00;;;;;;;32.97;7.37;;;7.40;99.90;;;;;;5075751;28;20732;-82
2024/01/24 21:49:29;;;;;;;32.43;7.13;;;7.40;99.90;;;;;;5061510;28;20230;-81
2024/01/24 21:51:56;;;;;;;32.53;7.50;;;7.40;99.90;;;;;;5071382;28;20238;-81
2024/01/24 21:54:23;;;;;;;34.27;8.57;;;7.30;99.90;;;;;;5093942;28;20229;-81
2024/01/24 21:56:50;;;;;;;28.83;7.27;;;7.40;99.90;;;;;;5085068;28;20238;-80
2024/01/24 21:59:17;;;;;;;30.93;7.93;;;7.40;99.90;;;;;;5082734;28;20231;-80
2024/01/24 22:01:44;;;;;;;30.37;6.87;;;7.30;99.90;;;;;;5069887;28;21104;-81
2024/01/24 22:04:12;;;;;;;36.47;8.13;;;7.30;99.90;;;;;;5099647;28;20329;-84
2024/01/24 22:06:39;;;;;;;33.93;8.10;;;7.20;99.90;;;;;;5053952;28;20613;-84
2024/01/24 22:09:06;;;;;;;30.57;7.20;;;7.20;99.90;;;;;;5062292;28;20567;-83
2024/01/24 22:11:35;;;;;;;30.77;7.50;;;7.20;99.90;;;;;;5053360;28;20303;-84
2024/01/24 22:14:02;;;;;;;33.67;7.00;;;7.10;99.90;;;;;;5089421;28;20587;-83
2024/01/24 22:16:29;;;;;;;33.17;6.90;;;7.10;99.90;;;;;;5065891;28;20226;-83
2024/01/24 22:18:56;;;;;;;32.90;6.70;;;7.10;99.90;;;;;;5070907;28;20224;-84
2024/01/24 22:21:24;;;;;;;27.43;7.13;;;7.00;99.90;;;;;;5069187;28;20229;-81
2024/01/24 22:23:51;;;;;;;31.13;8.33;;;6.90;99.90;;;;;;5068169;28;20224;-82
2024/01/24 22:26:17;;;;;;;30.83;6.90;;;6.90;99.90;;;;;;5062206;28;20299;-82
2024/01/24 22:28:44;;;;;;;29.53;6.77;;;6.90;99.90;;;;;;5076561;28;20223;-82
2024/01/24 22:31:11;;;;;;;27.93;6.60;;;6.80;99.90;;;;;;5060335;28;20215;-83
2024/01/24 22:33:38;;;;;;;23.13;6.40;;;6.80;99.90;;;;;;5064502;28;20227;-81
2024/01/24 22:36:06;;;;;;;32.30;8.13;;;6.80;99.90;;;;;;5047509;28;20225;-81
2024/01/24 22:38:34;;;;;;;28.77;7.17;;;6.80;99.90;;;;;;5056176;28;20315;-81
2024/01/24 22:41:01;;;;;;;29.77;7.03;;;6.70;99.90;;;;;;5075711;28;20279;-82
2024/01/24 22:43:28;;;;;;;33.87;7.57;;;6.70;99.90;;;;;;5068949;28;22224;-82
2024/01/24 22:45:55;;;;;;;29.30;6.83;;;6.60;99.90;;;;;;5056540;28;20240;-81
2024/01/24 22:48:21;;;;;;;28.27;6.93;;;6.70;99.90;;;;;;5059628;28;21024;-81
2024/01/24 22:50:48;;;;;;;24.67;7.37;;;6.60;99.90;;;;;;5046111;28;20224;-82
2024/01/24 22:53:15;;;;;;;27.60;6.40;;;6.70;99.90;;;;;;5044368;28;20237;-82
2024/01/24 22:55:44;;;;;;;33.83;7.77;;;6.60;99.90;;;;;;5056877;28;20234;-82
2024/01/24 22:58:11;;;;;;;28.33;6.50;;;6.60;99.90;;;;;;5046630;28;20287;-81
2024/01/24 23:00:38;;;;;;;34.03;7.50;;;6.60;99.90;;;;;;5063714;28;20223;-83
2024/01/24 23:03:05;;;;;;;24.47;6.27;;;6.60;99.90;;;;;;5060467;28;20217;-82
2024/01/24 23:05:32;;;;;;;33.70;6.90;;;6.60;99.90;;;;;;5047384;28;20931;-82
2024/01/24 23:07:59;;;;;;;34.70;7.37;;;6.60;99.90;;;;;;5047240;28;20287;-83
2024/01/24 23:10:26;;;;;;;25.83;6.27;;;6.60;99.90;;;;;;5061299;28;20230;-82
2024/01/24 23:12:54;;;;;;;30.73;7.83;;;6.70;99.90;;;;;;5044988;28;21210;-82
2024/01/24 23:15:21;;;;;;;26.03;6.50;;;6.60;99.90;;;;;;5045246;28;20219;-82
2024/01/24 23:17:48;;;;;;;27.10;6.73;;;6.60;99.90;;;;;;5061387;28;20343;-82
2024/01/24 23:20:15;;;;;;;32.77;8.30;;;6.70;99.90;;;;;;5042393;28;20213;-82
2024/01/24 23:22:42;;;;;;;35.40;7.93;;;6.70;99.90;;;;;;5057754;28;20232;-82
2024/01/24 23:25:09;;;;;;;28.47;7.00;;;6.60;99.90;;;;;;5055703;28;20226;-83
2024/01/24 23:27:36;;;;;;;30.60;6.50;;;6.60;99.90;;;;;;5056485;28;20767;-82
2024/01/24 23:30:06;;;;;;;36.37;7.77;;;6.60;99.90;;;;;;5040000;28;21160;-82
2024/01/24 23:32:33;;;;;;;34.10;7.47;;;6.70;99.90;;;;;;5058418;28;20239;-82
2024/01/24 23:35:00;;;;;;;31.87;7.30;;;6.70;99.90;;;;;;5041669;28;20234;-82
2024/01/24 23:37:27;;;;;;;32.37;6.87;;;6.70;99.90;;;;;;5045120;28;20241;-80
2024/01/24 23:39:54;;;;;;;28.93;7.27;;;6.60;99.90;;;;;;5044038;28;20233;-83
2024/01/24 23:42:21;;;;;;;29.57;6.20;;;6.70;99.90;;;;;;5042670;28;20221;-80
2024/01/24 23:44:48;;;;;;;33.10;7.67;;;6.60;99.90;;;;;;5049587;28;20222;-80
2024/01/24 23:47:16;;;;;;;34.50;7.33;;;6.60;99.90;;;;;;5046543;28;20221;-80
2024/01/24 23:49:43;;;;;;;34.27;7.97;;;6.60;99.90;;;;;;5046904;28;20885;-81
2024/01/24 23:52:10;;;;;;;33.37;8.47;;;6.60;99.90;;;;;;5048718;28;20214;-81
2024/01/24 23:54:36;;;;;;;29.90;7.73;;;6.60;99.90;;;;;;5055516;28;20251;-80
2024/01/24 23:57:04;;;;;;;36.67;7.93;;;6.60;99.90;;;;;;5057529;28;20941;-81
2024/01/24 23:59:31;;;;;;;35.37;7.33;;;6.60;99.90;;;;;;5069119;28;20857;-81
